Time;durP1;ratioP1;P1;durP2;ratioP2;P2;SDS_P1;SDS_P2;PMS_P1;PMS_P2;Temp;Humidity;BMP_temperature;BMP_pressure;BME280_temperature;BME280_humidity;BME280_pressure;Samples;Min_cycle;Max_cycle;Signal;HPM_P1;HPM_P2
2021/10/15 00:02:26;;;;;;;43.58;26.48;;;;;;;8.12;100.00;101847.02;1734362;82;21537;-87
2021/10/15 00:04:53;;;;;;;40.48;24.52;;;;;;;8.15;100.00;101846.03;1734563;82;21092;-87
2021/10/15 00:07:20;;;;;;;39.05;25.02;;;;;;;8.15;100.00;101849.45;1734330;82;21072;-89
2021/10/15 00:09:47;;;;;;;37.50;23.73;;;;;;;8.15;100.00;101844.27;1734454;82;21081;-89
2021/10/15 00:12:16;;;;;;;34.75;25.72;;;;;;;8.16;100.00;101842.06;1734196;82;21444;-88
2021/10/15 00:14:44;;;;;;;47.40;24.92;;;;;;;8.20;100.00;101846.66;1733711;82;21069;-88
2021/10/15 00:17:11;;;;;;;32.25;25.32;;;;;;;8.23;100.00;101845.23;1734025;81;21455;-88
2021/10/15 00:19:39;;;;;;;36.50;25.77;;;;;;;8.25;100.00;101837.37;1734276;81;22356;-88
2021/10/15 00:22:06;;;;;;;32.35;26.05;;;;;;;8.27;100.00;101836.85;1702760;82;21081;-88
2021/10/15 00:24:33;;;;;;;33.15;25.37;;;;;;;8.26;100.00;101834.69;1734098;82;21151;-88
2021/10/15 00:27:00;;;;;;;39.13;25.43;;;;;;;8.24;100.00;101838.28;1734331;82;21642;-88
2021/10/15 00:29:27;;;;;;;42.60;26.42;;;;;;;8.24;100.00;101831.35;1734290;82;21084;-87
2021/10/15 00:31:55;;;;;;;37.40;26.97;;;;;;;8.26;100.00;101829.97;1734650;82;21076;-87
2021/10/15 00:34:22;;;;;;;37.70;25.50;;;;;;;8.30;100.00;101832.80;1734372;82;21126;-89
2021/10/15 00:36:49;;;;;;;39.95;26.77;;;;;;;8.35;100.00;101830.85;1734860;81;21064;-88
2021/10/15 00:39:16;;;;;;;35.40;25.25;;;;;;;8.40;100.00;101826.28;1734051;82;21061;-88
2021/10/15 00:41:43;;;;;;;36.10;26.05;;;;;;;8.44;100.00;101830.43;1734468;82;21206;-88
2021/10/15 00:44:13;;;;;;;33.10;25.52;;;;;;;8.46;100.00;101827.28;1734487;82;21044;-88
2021/10/15 00:46:43;;;;;;;32.70;25.20;;;;;;;8.46;100.00;101832.95;1734571;82;21133;-87
2021/10/15 00:49:16;;;;;;;31.40;24.87;;;;;;;8.46;100.00;101839.44;1734373;82;21036;-87
2021/10/15 00:51:44;;;;;;;34.73;24.92;;;;;;;8.46;100.00;101837.66;1734737;82;21017;-88
2021/10/15 00:54:15;;;;;;;31.30;25.27;;;;;;;8.47;100.00;101832.89;1734169;81;21040;-89
2021/10/15 00:56:44;;;;;;;35.30;25.37;;;;;;;8.48;100.00;101833.28;1734089;82;21124;-88
2021/10/15 00:59:12;;;;;;;31.68;24.95;;;;;;;8.50;100.00;101826.71;1679734;82;21091;-88
2021/10/15 01:01:40;;;;;;;31.07;24.50;;;;;;;8.51;100.00;101835.75;1733800;82;22203;-88
2021/10/15 01:04:08;;;;;;;31.87;24.35;;;;;;;8.51;100.00;101827.95;1702978;82;21139;-87
2021/10/15 01:06:36;;;;;;;30.90;24.35;;;;;;;8.52;100.00;101828.78;1733971;82;21021;-90
2021/10/15 01:09:05;;;;;;;33.45;24.87;;;;;;;8.50;100.00;101831.47;1734077;82;21577;-89
2021/10/15 01:11:33;;;;;;;33.83;23.90;;;;;;;8.46;100.00;101831.17;1734270;82;21150;-88
2021/10/15 01:14:04;;;;;;;32.93;24.80;;;;;;;8.43;100.00;101836.97;1734125;82;21929;-87
2021/10/15 01:16:33;;;;;;;33.02;25.08;;;;;;;8.43;100.00;101844.31;1699367;82;21088;-87
2021/10/15 01:19:03;;;;;;;31.00;23.60;;;;;;;8.44;100.00;101850.34;1734149;82;21064;-88
2021/10/15 01:21:31;;;;;;;36.77;24.27;;;;;;;8.44;100.00;101844.70;1703119;82;21132;-87
2021/10/15 01:23:59;;;;;;;37.80;24.12;;;;;;;8.42;100.00;101847.82;1733756;82;21200;-88
2021/10/15 01:26:26;;;;;;;37.63;24.60;;;;;;;8.40;100.00;101853.53;1749877;81;20984;-87
2021/10/15 01:28:55;;;;;;;34.55;24.20;;;;;;;8.40;100.00;101853.53;1750494;82;21442;-86
2021/10/15 01:31:23;;;;;;;31.02;24.32;;;;;;;8.42;100.00;101850.86;1750337;82;21078;-88
2021/10/15 01:33:58;;;;;;;33.18;25.65;;;;;;;8.43;100.00;101858.59;1720964;82;21051;-90
2021/10/15 01:36:26;;;;;;;37.30;25.72;;;;;;;8.44;100.00;101855.09;1746660;82;21995;-89
2021/10/15 01:38:55;;;;;;;35.58;24.82;;;;;;;8.46;100.00;101861.03;1720318;82;21004;-88
2021/10/15 01:41:23;;;;;;;34.92;25.45;;;;;;;8.47;100.00;101856.73;1750052;82;20972;-89
2021/10/15 01:43:50;;;;;;;47.75;25.35;;;;;;;8.48;100.00;101860.54;1750389;82;21079;-89
2021/10/15 01:46:17;;;;;;;63.73;26.82;;;;;;;8.46;100.00;101855.84;1750215;82;21623;-89
2021/10/15 01:48:45;;;;;;;45.35;25.43;;;;;;;8.47;100.00;101856.73;1750228;82;21084;-89
2021/10/15 01:51:12;;;;;;;40.30;24.80;;;;;;;8.50;100.00;101862.62;1750436;82;21659;-89
2021/10/15 01:53:41;;;;;;;40.45;25.02;;;;;;;8.52;100.00;101867.73;1750107;81;21146;-89
2021/10/15 01:56:09;;;;;;;34.30;24.92;;;;;;;8.50;100.00;101871.70;1750241;82;21040;-89
2021/10/15 01:58:37;;;;;;;40.92;25.27;;;;;;;8.50;100.00;101876.89;1727335;81;21108;-89
2021/10/15 02:01:04;;;;;;;34.40;25.10;;;;;;;8.49;100.00;101880.40;1755087;81;21833;-88
2021/10/15 02:03:33;;;;;;;32.35;24.18;;;;;;;8.49;100.00;101873.91;1755002;81;21544;-88
2021/10/15 02:06:00;;;;;;;32.17;24.20;;;;;;;8.48;100.00;101882.61;1755154;81;21008;-89
2021/10/15 02:08:28;;;;;;;35.98;24.32;;;;;;;8.44;100.00;101875.00;1755142;81;21059;-88
2021/10/15 02:10:55;;;;;;;46.30;26.20;;;;;;;8.39;100.00;101877.80;1749851;82;21059;-88
2021/10/15 02:13:22;;;;;;;44.10;25.08;;;;;;;8.36;100.00;101880.08;1727320;81;21021;-88
2021/10/15 02:15:50;;;;;;;40.70;26.35;;;;;;;8.32;100.00;101881.59;1754959;81;21098;-87
2021/10/15 02:18:17;;;;;;;38.73;26.93;;;;;;;8.32;100.00;101879.86;1755250;81;21015;-88
2021/10/15 02:20:45;;;;;;;39.48;26.75;;;;;;;8.33;100.00;101889.77;1755169;81;21659;-88
2021/10/15 02:23:12;;;;;;;39.63;27.22;;;;;;;8.33;100.00;101890.59;1713418;81;21096;-88
2021/10/15 02:25:39;;;;;;;38.83;28.25;;;;;;;8.33;100.00;101887.17;1751861;80;21397;-88
2021/10/15 02:28:07;;;;;;;42.38;26.90;;;;;;;8.32;100.00;101883.75;1751825;80;21017;-88
2021/10/15 02:30:34;;;;;;;44.65;27.85;;;;;;;8.28;100.00;101877.47;1751817;80;21087;-88
2021/10/15 02:33:03;;;;;;;38.20;27.45;;;;;;;8.26;100.00;101885.77;1751448;80;21119;-90
2021/10/15 02:35:30;;;;;;;38.05;26.87;;;;;;;8.28;100.00;101882.19;1751911;80;21032;-90
2021/10/15 02:38:00;;;;;;;40.70;26.23;;;;;;;8.24;100.00;101878.06;1734496;81;21098;-90
2021/10/15 02:40:29;;;;;;;38.28;26.75;;;;;;;8.19;100.00;101874.81;1748954;80;21106;-90
2021/10/15 02:42:57;;;;;;;39.98;26.15;;;;;;;8.14;100.00;101875.48;1779239;80;21044;-88
2021/10/15 02:45:25;;;;;;;31.07;25.20;;;;;;;8.07;100.00;101874.08;1782739;79;21110;-88
2021/10/15 02:47:52;;;;;;;32.55;25.30;;;;;;;8.07;100.00;101885.28;1782905;80;21052;-89
2021/10/15 02:50:19;;;;;;;31.50;23.70;;;;;;;8.09;100.00;101886.06;1782840;80;21159;-88
2021/10/15 02:52:46;;;;;;;32.20;23.38;;;;;;;8.10;100.00;101878.67;1782393;80;21556;-88
2021/10/15 02:55:13;;;;;;;31.77;24.07;;;;;;;8.08;100.00;101883.08;1783027;80;21040;-88
2021/10/15 02:57:42;;;;;;;28.90;24.00;;;;;;;8.03;100.00;101877.27;1780956;80;21079;-88
2021/10/15 03:00:13;;;;;;;29.65;23.87;;;;;;;8.04;100.00;101877.19;1772992;79;21528;-88
2021/10/15 03:02:42;;;;;;;;;;;;;;;8.02;100.00;101871.69;1786327;79;21072;-88
2021/10/15 03:05:10;;;;;;;39.78;23.77;;;;;;;8.01;100.00;101872.59;1782100;79;20186;-92
2021/10/15 03:07:38;;;;;;;43.85;23.85;;;;;;;8.02;100.00;101875.58;1782585;80;21056;-92
2021/10/15 03:10:08;;;;;;;60.25;25.23;;;;;;;8.12;100.00;101882.05;1732779;80;21077;-96
2021/10/15 03:12:38;;;;;;;40.25;24.30;;;;;;;8.18;100.00;101879.61;1775420;79;20981;-92
2021/10/15 03:15:07;;;;;;;36.33;24.20;;;;;;;8.21;100.00;101873.00;1760755;80;21183;-95
2021/10/15 03:17:35;;;;;;;40.23;24.43;;;;;;;8.28;100.00;101868.38;1742926;80;21028;-95
2021/10/15 03:20:03;;;;;;;36.25;24.70;;;;;;;8.31;100.00;101871.68;1782456;79;20989;-93
2021/10/15 03:22:30;;;;;;;30.05;23.65;;;;;;;8.33;100.00;101872.89;1781618;79;21010;-81
2021/10/15 03:24:57;;;;;;;31.73;25.48;;;;;;;8.25;100.00;101869.81;1763532;80;20945;-83
2021/10/15 03:27:24;;;;;;;31.00;23.80;;;;;;;8.13;100.00;101869.91;1792148;80;21109;-83
2021/10/15 03:29:51;;;;;;;30.35;24.45;;;;;;;7.99;100.00;101866.19;1791976;79;21549;-83
2021/10/15 03:32:18;;;;;;;31.07;24.65;;;;;;;8.00;100.00;101872.20;1792299;80;21079;-83
2021/10/15 03:34:45;;;;;;;34.65;25.60;;;;;;;7.99;100.00;101862.73;1792162;80;21511;-82
2021/10/15 03:37:12;;;;;;;33.13;25.12;;;;;;;7.92;100.00;101856.13;1791966;80;21071;-81
2021/10/15 03:39:39;;;;;;;33.10;24.55;;;;;;;7.82;100.00;101856.53;1778184;78;21775;-86
2021/10/15 03:42:08;;;;;;;44.60;25.20;;;;;;;7.73;100.00;101843.52;1733630;81;21036;-86
2021/10/15 03:44:35;;;;;;;31.23;24.47;;;;;;;7.72;100.00;101845.72;1760871;80;21111;-85
2021/10/15 03:47:02;;;;;;;36.53;23.73;;;;;;;7.67;100.00;101850.72;1760869;81;21013;-86
2021/10/15 03:49:29;;;;;;;33.45;23.20;;;;;;;7.63;100.00;101850.47;1760961;80;21064;-86
2021/10/15 03:51:56;;;;;;;32.55;23.15;;;;;;;7.64;100.00;101859.47;1760637;81;21159;-85
2021/10/15 03:54:23;;;;;;;34.15;22.95;;;;;;;7.64;100.00;101861.23;1760691;80;21079;-85
2021/10/15 03:56:50;;;;;;;30.30;21.93;;;;;;;7.66;100.00;101868.47;1760665;81;21067;-84
2021/10/15 03:59:18;;;;;;;34.43;23.18;;;;;;;7.72;100.00;101870.83;1760451;80;21067;-86
2021/10/15 04:01:45;;;;;;;30.37;21.70;;;;;;;7.78;100.00;101878.33;1759960;81;21067;-84
2021/10/15 04:04:12;;;;;;;29.40;21.20;;;;;;;7.81;100.00;101883.37;1760214;80;21109;-86
2021/10/15 04:06:40;;;;;;;45.25;22.95;;;;;;;7.80;100.00;101883.44;1786060;78;21601;-82
2021/10/15 04:09:07;;;;;;;31.87;22.30;;;;;;;7.82;100.00;101881.16;1791448;78;21490;-82
2021/10/15 04:11:34;;;;;;;29.23;21.48;;;;;;;7.87;100.00;101889.61;1791369;78;21016;-82
2021/10/15 04:14:01;;;;;;;35.25;21.42;;;;;;;7.96;100.00;101894.01;1791861;78;21071;-83
2021/10/15 04:16:29;;;;;;;38.55;23.55;;;;;;;8.03;100.00;101888.94;1791709;79;21128;-84
2021/10/15 04:18:57;;;;;;;41.20;22.07;;;;;;;8.12;100.00;101895.02;1791201;78;21170;-81
2021/10/15 04:21:25;;;;;;;47.25;22.05;;;;;;;8.20;100.00;101893.36;1787363;78;21032;-82
2021/10/15 04:23:52;;;;;;;27.52;21.65;;;;;;;8.24;100.00;101896.23;1776013;78;21061;-82
2021/10/15 04:26:19;;;;;;;25.82;21.52;;;;;;;8.19;100.00;101905.52;1771350;79;21067;-83
2021/10/15 04:28:47;;;;;;;26.07;22.75;;;;;;;8.10;100.00;101905.05;1771933;79;21796;-83
2021/10/15 04:31:14;;;;;;;28.12;23.07;;;;;;;8.00;100.00;101912.41;1776008;79;21056;-83
2021/10/15 04:33:41;;;;;;;27.93;23.55;;;;;;;7.87;100.00;101914.25;1812096;77;21057;-83
2021/10/15 04:36:08;;;;;;;29.90;23.52;;;;;;;7.78;100.00;101921.12;1810505;78;21052;-83
2021/10/15 04:38:35;;;;;;;30.62;24.70;;;;;;;7.69;100.00;101933.17;1812310;79;20955;-83
2021/10/15 04:41:03;;;;;;;32.20;25.27;;;;;;;7.61;100.00;101930.88;1778271;79;21170;-83
2021/10/15 04:43:30;;;;;;;30.65;25.37;;;;;;;7.54;100.00;101934.20;1812033;78;20972;-83
2021/10/15 04:45:57;;;;;;;33.00;24.92;;;;;;;7.50;100.00;101943.00;1802576;77;20977;-83
2021/10/15 04:48:24;;;;;;;29.02;23.30;;;;;;;7.49;100.00;101946.48;1763587;79;20983;-82
2021/10/15 04:50:53;;;;;;;31.27;25.00;;;;;;;7.47;100.00;101947.03;1806668;78;21118;-82
2021/10/15 04:53:20;;;;;;;33.70;27.40;;;;;;;7.44;100.00;101953.62;1801945;78;21141;-83
2021/10/15 04:55:47;;;;;;;33.53;28.55;;;;;;;7.39;100.00;101949.91;1742178;81;21117;-82
2021/10/15 04:58:14;;;;;;;37.83;29.95;;;;;;;7.33;100.00;101955.81;1742641;80;21060;-83
2021/10/15 05:00:46;;;;;;;35.28;29.77;;;;;;;7.28;100.00;101948.22;1805211;77;21641;-83
2021/10/15 05:03:14;;;;;;;40.60;31.80;;;;;;;7.25;100.00;101945.28;1803295;78;21023;-83
2021/10/15 05:05:43;;;;;;;39.73;31.33;;;;;;;7.24;100.00;101947.51;1775537;79;21131;-83
2021/10/15 05:08:14;;;;;;;38.65;30.60;;;;;;;7.21;100.00;101948.91;1808977;78;21034;-83
2021/10/15 05:10:44;;;;;;;34.20;28.32;;;;;;;7.19;100.00;101946.83;1808896;78;21508;-83
2021/10/15 05:13:14;;;;;;;38.23;29.57;;;;;;;7.21;100.00;101952.80;1811552;79;21030;-83
2021/10/15 05:15:44;;;;;;;37.53;29.67;;;;;;;7.22;100.00;101951.03;1812710;77;22351;-82
2021/10/15 05:18:13;;;;;;;41.23;31.57;;;;;;;7.24;100.00;101951.83;1813846;78;21885;-82
2021/10/15 05:20:42;;;;;;;40.98;29.75;;;;;;;7.26;100.00;101956.50;1801514;77;21407;-83
2021/10/15 05:23:11;;;;;;;36.03;27.25;;;;;;;7.29;100.00;101955.53;1776002;79;21053;-83
2021/10/15 05:25:40;;;;;;;35.43;27.67;;;;;;;7.33;100.00;101945.45;1760360;80;21059;-83
2021/10/15 05:28:07;;;;;;;34.08;26.82;;;;;;;7.38;100.00;101951.28;1760583;80;21075;-83
2021/10/15 05:30:34;;;;;;;34.55;27.50;;;;;;;7.42;100.00;101952.83;1760806;80;21777;-83
2021/10/15 05:33:03;;;;;;;30.97;26.55;;;;;;;7.52;100.00;101949.44;1760687;80;21045;-83
2021/10/15 05:35:31;;;;;;;35.40;27.42;;;;;;;7.62;100.00;101950.72;1760804;81;21085;-83
2021/10/15 05:37:59;;;;;;;37.13;27.52;;;;;;;7.68;100.00;101953.52;1779091;78;21052;-83
2021/10/15 05:40:26;;;;;;;35.43;27.82;;;;;;;7.71;100.00;101946.45;1776679;78;21586;-83
2021/10/15 05:42:53;;;;;;;37.28;27.65;;;;;;;7.75;100.00;101949.77;1761300;80;21188;-83
2021/10/15 05:45:20;;;;;;;37.65;28.45;;;;;;;7.78;100.00;101950.94;1782161;78;21076;-83
2021/10/15 05:47:47;;;;;;;38.92;31.07;;;;;;;7.81;100.00;101944.30;1792730;78;21076;-82
2021/10/15 05:50:14;;;;;;;36.70;28.27;;;;;;;7.85;100.00;101953.66;1792316;78;21040;-83
2021/10/15 05:52:44;;;;;;;34.45;26.70;;;;;;;7.88;100.00;101957.44;1784121;78;22202;-83
2021/10/15 06:00:27;;;;;;;34.33;27.87;;;;;;;8.01;100.00;101962.09;1760974;80;21586;-83
2021/10/15 06:02:55;;;;;;;32.38;28.10;;;;;;;8.07;100.00;101960.52;1730046;81;21146;-83
2021/10/15 06:16:03;;;;;;;31.77;26.87;;;;;;;8.36;100.00;101950.64;1761158;80;21004;-83
2021/10/15 06:18:37;;;;;;;33.75;25.37;;;;;;;8.42;100.00;101950.79;1792711;78;21534;-84
2021/10/15 06:20:59;;;;;;;39.75;29.80;;;;;;;8.46;100.00;101960.97;1787605;78;21138;-83
2021/10/15 06:23:28;;;;;;;36.25;27.27;;;;;;;8.51;100.00;101959.06;1790821;78;21139;-83
2021/10/15 06:25:55;;;;;;;33.38;27.40;;;;;;;8.58;100.00;101957.48;1774040;78;21023;-83
2021/10/15 06:28:23;;;;;;;35.20;29.27;;;;;;;8.62;100.00;101959.02;1792188;78;21064;-83
2021/10/15 06:30:50;;;;;;;38.13;28.90;;;;;;;8.65;100.00;101954.98;1792268;80;21041;-83
2021/10/15 06:33:17;;;;;;;33.67;28.95;;;;;;;8.69;100.00;101951.36;1790224;78;21068;-83
2021/10/15 06:35:46;;;;;;;37.40;28.65;;;;;;;8.73;100.00;101950.29;1786529;78;20996;-83
2021/10/15 06:38:13;;;;;;;34.27;28.60;;;;;;;8.78;100.00;101951.38;1786523;78;21031;-83
2021/10/15 06:40:40;;;;;;;34.50;28.67;;;;;;;8.81;100.00;101952.55;1786385;78;21044;-83
2021/10/15 06:43:08;;;;;;;35.23;26.12;;;;;;;8.84;100.00;101951.95;1786535;78;21084;-83
2021/10/15 06:45:35;;;;;;;32.30;26.95;;;;;;;8.88;100.00;101951.34;1790588;80;21092;-83
2021/10/15 06:48:03;;;;;;;32.08;25.68;;;;;;;8.94;100.00;101964.04;1792162;80;21550;-82
2021/10/15 06:50:33;;;;;;;30.60;26.75;;;;;;;9.00;100.00;101965.52;1781612;78;21135;-83
2021/10/15 06:53:00;;;;;;;33.10;26.20;;;;;;;9.06;100.00;101960.02;1773638;80;22601;-83
2021/10/15 06:55:27;;;;;;;32.15;26.40;;;;;;;9.12;100.00;101961.50;1778172;78;21632;-83
2021/10/15 06:57:54;;;;;;;29.48;26.15;;;;;;;9.17;100.00;101963.88;1792299;78;21130;-83
2021/10/15 07:00:21;;;;;;;29.37;24.95;;;;;;;9.22;100.00;101957.98;1791990;78;21009;-83
2021/10/15 07:02:48;;;;;;;36.85;28.32;;;;;;;9.26;100.00;101955.61;1792427;78;21557;-83
2021/10/15 07:05:15;;;;;;;34.50;27.70;;;;;;;9.25;100.00;101954.78;1792292;78;21079;-83
2021/10/15 07:07:43;;;;;;;32.98;27.17;;;;;;;9.19;100.00;101955.52;1792253;78;21691;-83
2021/10/15 07:10:11;;;;;;;28.25;24.45;;;;;;;9.12;100.00;101953.23;1790693;78;21077;-83
2021/10/15 07:12:43;;;;;;;37.70;29.85;;;;;;;9.11;100.00;101955.91;1788421;78;21053;-83
2021/10/15 07:15:14;;;;;;;;;;;;;;;9.06;100.00;101957.42;1791568;79;21042;-83
2021/10/15 07:17:42;;;;;;;40.45;31.77;;;;;;;8.98;100.00;101955.17;1757745;80;20156;-83
2021/10/15 07:20:11;;;;;;;40.90;31.05;;;;;;;8.93;100.00;101955.03;1789064;78;21085;-83
2021/10/15 07:42:33;;;;;;;34.95;29.85;;;;;;;10.11;100.00;101924.06;1772232;80;22688;-82
2021/10/15 07:45:03;;;;;;;34.35;28.85;;;;;;;10.21;100.00;101929.66;1742730;82;21022;-82
2021/10/15 07:47:31;;;;;;;33.90;27.27;;;;;;;10.31;100.00;101932.13;1739773;82;21198;-82
2021/10/15 07:49:59;;;;;;;31.70;27.10;;;;;;;10.38;100.00;101932.69;1739248;82;21467;-83
2021/10/15 07:52:27;;;;;;;32.83;26.68;;;;;;;10.40;100.00;101930.38;1739620;82;21048;-84
2021/10/15 07:54:54;;;;;;;32.03;26.85;;;;;;;10.44;100.00;101925.84;1734870;82;21068;-84
2021/10/15 07:57:22;;;;;;;31.62;26.85;;;;;;;10.46;100.00;101925.75;1739413;82;21135;-84
2021/10/15 07:59:50;;;;;;;31.90;26.62;;;;;;;10.50;100.00;101927.28;1739499;82;21758;-85
2021/10/15 08:02:18;;;;;;;29.07;25.62;;;;;;;10.56;100.00;101929.11;1709982;82;21088;-84
2021/10/15 08:04:45;;;;;;;33.25;25.55;;;;;;;10.62;100.00;101930.51;1739654;80;21001;-84
2021/10/15 08:07:18;;;;;;;30.20;24.75;;;;;;;10.68;100.00;101928.90;1737784;82;21080;-85
2021/10/15 08:09:46;;;;;;;31.60;24.50;;;;;;;10.75;100.00;101929.86;1702107;82;21331;-84
2021/10/15 08:12:15;;;;;;;32.10;24.87;;;;;;;10.81;100.00;101929.06;1733436;82;21062;-84
2021/10/15 08:14:43;;;;;;;33.10;26.02;;;;;;;10.86;100.00;101929.64;1733593;81;21090;-84
2021/10/15 08:17:10;;;;;;;31.10;25.75;;;;;;;10.96;100.00;101926.05;1733377;82;21083;-84
2021/10/15 08:19:40;;;;;;;27.30;22.20;;;;;;;11.04;100.00;101925.16;1733649;81;21107;-84
2021/10/15 08:22:08;;;;;;;27.17;22.50;;;;;;;11.13;100.00;101925.13;1734207;82;21080;-84
2021/10/15 08:24:35;;;;;;;31.23;24.50;;;;;;;11.21;100.00;101932.49;1738067;82;21816;-84
2021/10/15 08:27:05;;;;;;;29.52;23.57;;;;;;;11.23;100.00;101937.16;1737493;82;21044;-84
2021/10/15 08:29:38;;;;;;;24.25;20.88;;;;;;;11.29;100.00;101932.89;1738219;82;21022;-84
2021/10/15 08:32:02;;;;;;;24.63;20.27;;;;;;;11.38;100.00;101938.52;1730208;82;22111;-84
2021/10/15 08:34:31;;;;;;;24.72;20.30;;;;;;;11.47;100.00;101940.59;1733941;82;21025;-84
2021/10/15 08:36:58;;;;;;;23.70;19.32;;;;;;;11.52;100.00;101945.07;1733915;81;21136;-84
2021/10/15 08:39:28;;;;;;;24.30;19.87;;;;;;;11.55;100.00;101938.38;1734179;82;21092;-84
2021/10/15 08:41:57;;;;;;;21.27;17.62;;;;;;;11.60;100.00;101937.64;1701545;82;21077;-84
2021/10/15 08:44:41;;;;;;;20.97;16.42;;;;;;;11.72;100.00;101936.56;1724511;81;21026;-85
2021/10/15 08:47:18;;;;;;;20.17;16.32;;;;;;;11.82;100.00;101936.36;1725987;82;21124;-84
2021/10/15 08:49:49;;;;;;;18.02;15.68;;;;;;;11.95;100.00;101938.64;1730487;82;21129;-84
2021/10/15 08:52:16;;;;;;;19.02;15.75;;;;;;;12.04;100.00;101934.66;1733609;81;21102;-84
2021/10/15 08:54:45;;;;;;;18.00;15.00;;;;;;;12.10;100.00;101933.45;1742507;81;21076;-84
2021/10/15 08:57:14;;;;;;;18.12;16.12;;;;;;;12.14;100.00;101933.62;1737455;81;21068;-83
2021/10/15 08:59:49;;;;;;;18.77;15.95;;;;;;;12.11;100.00;101927.30;1732283;81;21968;-83
2021/10/15 09:02:21;;;;;;;21.93;18.00;;;;;;;12.10;100.00;101932.14;1732036;82;21575;-83
2021/10/15 09:04:55;;;;;;;22.90;18.75;;;;;;;12.17;100.00;101925.61;1733366;82;21102;-82
2021/10/15 09:07:27;;;;;;;20.57;18.37;;;;;;;12.28;100.00;101928.87;1732809;82;21161;-85
2021/10/15 09:10:18;;;;;;;49.30;41.13;;;;;;;12.39;100.00;101921.67;1733292;81;21116;-84
2021/10/15 09:12:48;;;;;;;52.25;41.98;;;;;;;12.46;100.00;101917.29;1728872;82;21601;-84
2021/10/15 09:15:16;;;;;;;52.27;42.17;;;;;;;12.50;100.00;101910.58;1733424;81;22026;-84
2021/10/15 09:17:52;;;;;;;48.20;38.48;;;;;;;12.55;100.00;101916.34;1733209;82;21033;-84
2021/10/15 09:20:30;;;;;;;40.10;34.63;;;;;;;12.65;100.00;101908.75;1733341;82;21432;-84
2021/10/15 09:22:58;;;;;;;49.63;40.08;;;;;;;12.77;100.00;101897.53;1731633;82;21010;-84
2021/10/15 09:25:32;;;;;;;64.40;48.78;;;;;;;12.91;100.00;101896.17;1733740;81;21040;-85
2021/10/15 09:28:00;;;;;;;60.90;47.48;;;;;;;13.00;100.00;101897.81;1730354;81;21782;-84
2021/10/15 09:30:33;;;;;;;54.45;44.40;;;;;;;13.04;100.00;101891.44;1733605;81;21116;-84
2021/10/15 09:33:01;;;;;;;53.85;41.37;;;;;;;13.08;100.00;101887.22;1732662;82;21510;-84
2021/10/15 09:35:32;;;;;;;39.73;32.50;;;;;;;13.16;100.00;101886.73;1698028;81;21118;-84
2021/10/15 09:38:05;;;;;;;42.95;30.17;;;;;;;13.22;100.00;101892.85;1730121;81;21064;-84
2021/10/15 09:40:37;;;;;;;31.97;26.65;;;;;;;13.25;100.00;101891.81;1726689;81;21125;-84
2021/10/15 09:43:09;;;;;;;33.18;26.93;;;;;;;13.26;100.00;101887.77;1725430;81;21122;-85
2021/10/15 09:45:39;;;;;;;36.53;29.10;;;;;;;13.28;98.59;101888.14;1736774;80;21002;-85
2021/10/15 09:48:26;;;;;;;32.88;26.07;;;;;;;13.32;99.64;101897.48;1732557;81;21013;-85
2021/10/15 09:51:19;;;;;;;21.00;16.70;;;;;;;13.35;99.67;101894.19;1729123;81;21117;-85
2021/10/15 09:54:22;;;;;;;21.37;15.88;;;;;;;13.39;80.47;101892.23;1666531;84;21530;-83
2021/10/15 09:56:47;;;;;;;20.85;16.85;;;;;;;13.43;77.33;101888.45;1729804;81;21010;-83
2021/10/15 09:59:16;;;;;;;24.07;18.65;;;;;;;13.50;84.25;101881.05;1733528;82;21076;-83
2021/10/15 10:01:44;;;;;;;21.85;17.32;;;;;;;13.57;77.88;101869.22;1749126;81;21072;-83
2021/10/15 10:04:13;;;;;;;18.10;15.20;;;;;;;13.63;76.41;101869.27;1763496;81;21092;-83
2021/10/15 10:06:40;;;;;;;21.97;16.65;;;;;;;13.73;80.48;101869.02;1749611;81;21141;-83
2021/10/15 10:09:09;;;;;;;22.20;15.63;;;;;;;13.78;73.00;101863.47;1732256;81;21068;-84
2021/10/15 10:11:39;;;;;;;17.35;14.90;;;;;;;13.82;71.34;101863.13;1734986;82;21121;-83
2021/10/15 10:14:12;;;;;;;18.92;15.00;;;;;;;13.87;63.81;101851.88;1735433;82;21053;-83
2021/10/15 10:16:38;;;;;;;18.70;15.13;;;;;;;13.90;64.94;101844.77;1730127;81;21728;-83
2021/10/15 10:19:06;;;;;;;19.17;16.27;;;;;;;13.93;63.35;101843.22;1695068;81;21432;-83
2021/10/15 10:21:34;;;;;;;19.23;15.55;;;;;;;13.94;63.23;101839.18;1725391;81;22036;-84
2021/10/15 10:24:19;;;;;;;19.52;15.58;;;;;;;13.87;58.95;101837.94;1696073;82;21661;-83
2021/10/15 10:26:50;;;;;;;18.60;14.70;;;;;;;13.83;65.33;101838.62;1733641;81;21057;-84
2021/10/15 10:29:19;;;;;;;22.90;17.75;;;;;;;13.87;67.27;101835.31;1746050;81;21112;-84
2021/10/15 10:31:47;;;;;;;23.77;16.37;;;;;;;13.89;64.73;101833.44;1714838;81;21140;-84
2021/10/15 10:34:24;;;;;;;21.40;17.00;;;;;;;13.91;67.07;101838.11;1727717;81;21068;-84
2021/10/15 10:37:13;;;;;;;21.17;16.25;;;;;;;13.93;62.24;101827.52;1731097;81;21128;-84
2021/10/15 10:39:41;;;;;;;20.80;16.05;;;;;;;13.86;64.97;101820.09;1679442;82;21009;-83
2021/10/15 10:42:12;;;;;;;19.87;15.98;;;;;;;13.81;64.28;101821.36;1714744;81;21072;-84
2021/10/15 10:44:57;;;;;;;19.70;15.30;;;;;;;13.80;67.18;101824.45;1738898;81;25306;-83
2021/10/15 10:47:31;;;;;;;20.55;15.72;;;;;;;13.83;67.05;101817.68;1738949;81;21044;-84
2021/10/15 10:50:09;;;;;;;21.75;15.93;;;;;;;13.85;64.17;101821.03;1734649;81;21077;-84
2021/10/15 10:52:47;;;;;;;16.70;12.98;;;;;;;13.85;58.22;101815.80;1730197;81;21078;-84
2021/10/15 10:55:47;;;;;;;18.98;13.78;;;;;;;13.82;58.80;101819.11;1719823;81;21073;-83
2021/10/15 10:58:36;;;;;;;19.37;13.83;;;;;;;13.76;62.41;101820.36;1711017;81;21087;-84
2021/10/15 11:01:28;;;;;;;15.20;12.47;;;;;;;13.72;60.03;101817.13;1738370;81;21068;-83
2021/10/15 11:03:57;;;;;;;14.70;12.20;;;;;;;13.73;59.72;101820.59;1734234;81;21132;-83
2021/10/15 11:06:28;;;;;;;15.93;12.63;;;;;;;13.78;60.34;101813.25;1701286;82;21100;-84
2021/10/15 11:09:01;;;;;;;14.60;12.20;;;;;;;13.80;61.61;101806.13;1674282;81;21101;-83
2021/10/15 11:11:37;;;;;;;15.08;12.58;;;;;;;13.81;57.22;101813.05;1724822;81;21967;-83
2021/10/15 11:14:05;;;;;;;14.30;12.05;;;;;;;13.76;60.38;101813.81;1735299;81;21105;-84
2021/10/15 11:16:33;;;;;;;14.60;11.48;;;;;;;13.72;64.98;101804.04;1732136;81;21145;-84
2021/10/15 11:19:00;;;;;;;13.48;11.00;;;;;;;13.69;64.63;101800.80;1728564;80;22287;-83
2021/10/15 11:21:27;;;;;;;14.20;12.10;;;;;;;13.65;63.05;101801.97;1726270;80;21589;-84
2021/10/15 11:23:58;;;;;;;14.93;12.98;;;;;;;13.64;62.62;101800.30;1734468;81;21152;-84
2021/10/15 11:26:35;;;;;;;18.87;14.33;;;;;;;13.65;63.45;101800.66;1728598;81;21069;-84
2021/10/15 11:29:02;;;;;;;17.60;14.05;;;;;;;13.62;61.51;101796.45;1699322;81;21155;-83
2021/10/15 11:31:29;;;;;;;16.65;13.13;;;;;;;13.61;62.49;101802.66;1738891;81;21627;-82
2021/10/15 11:34:13;;;;;;;16.82;13.65;;;;;;;13.60;62.28;101797.51;1704387;82;21089;-82
2021/10/15 11:36:41;;;;;;;15.00;12.50;;;;;;;13.56;63.64;101794.27;1718023;81;21138;-83
2021/10/15 11:39:08;;;;;;;13.28;11.08;;;;;;;13.55;65.87;101789.52;1721848;82;21029;-83
2021/10/15 11:41:51;;;;;;;13.70;11.80;;;;;;;13.55;64.50;101783.43;1736491;82;21479;-83
2021/10/15 11:44:37;;;;;;;14.28;12.58;;;;;;;13.55;65.06;101780.81;1692907;83;21026;-83
2021/10/15 11:47:10;;;;;;;14.90;11.68;;;;;;;13.56;64.52;101777.26;1689404;83;21542;-83
2021/10/15 11:49:38;;;;;;;13.93;12.43;;;;;;;13.56;67.25;101779.42;1704760;83;21322;-83
2021/10/15 11:52:07;;;;;;;14.00;11.95;;;;;;;13.57;67.29;101780.23;1710513;83;21610;-83
2021/10/15 11:54:34;;;;;;;12.18;10.50;;;;;;;13.58;65.84;101783.72;1692730;83;21046;-83
2021/10/15 11:57:01;;;;;;;14.03;11.35;;;;;;;13.60;65.81;101792.27;1707867;83;21082;-84